Time;durP1;ratioP1;P1;durP2;ratioP2;P2;SDS_P1;SDS_P2;PMS_P1;PMS_P2;Temp;Humidity;BMP_temperature;BMP_pressure;BME280_temperature;BME280_humidity;BME280_pressure;Samples;Min_cycle;Max_cycle;Signal;HPM_P1;HPM_P2
2023/06/04 00:00:42;;;;;;;10.93;9.25;;;;;;;22.83;58.71;96536.34;5034873;28;20048;-34
2023/06/04 00:03:07;;;;;;;12.70;9.02;;;;;;;23.05;58.42;96540.31;5036063;28;20031;-34
2023/06/04 00:05:33;;;;;;;11.75;9.80;;;;;;;22.97;58.30;96537.34;5034319;28;20112;-35
2023/06/04 00:07:58;;;;;;;11.18;9.45;;;;;;;22.67;59.29;96534.31;5041629;28;20075;-34
2023/06/04 00:10:23;;;;;;;9.73;8.52;;;;;;;22.78;58.44;96525.28;5033486;28;20037;-33
2023/06/04 00:12:49;;;;;;;11.40;9.00;;;;;;;22.93;58.66;96523.00;5034077;28;20021;-34
2023/06/04 00:15:16;;;;;;;10.35;9.27;;;;;;;22.83;58.82;96519.00;5034769;28;20021;-34
2023/06/04 00:17:42;;;;;;;10.32;8.93;;;;;;;22.99;57.79;96512.69;5039542;28;20021;-34
2023/06/04 00:20:08;;;;;;;11.05;9.20;;;;;;;22.85;58.31;96511.72;5039554;28;20025;-34
2023/06/04 00:22:33;;;;;;;11.65;8.90;;;;;;;22.90;58.46;96508.16;5034808;28;20021;-34
2023/06/04 00:24:59;;;;;;;11.43;9.40;;;;;;;22.90;58.19;96504.66;5034000;28;20358;-34
2023/06/04 00:27:24;;;;;;;13.68;9.15;;;;;;;22.81;58.58;96505.69;5034442;28;20025;-34
2023/06/04 00:29:50;;;;;;;10.63;8.82;;;;;;;22.72;58.88;96499.66;5037649;28;20029;-34
2023/06/04 00:32:15;;;;;;;10.07;8.50;;;;;;;22.87;58.02;96508.44;5037497;28;20112;-34
2023/06/04 00:34:41;;;;;;;13.07;9.23;;;;;;;22.82;57.90;96507.19;5042587;28;20060;-34
2023/06/04 00:37:06;;;;;;;14.40;9.18;;;;;;;22.90;58.02;96507.41;5046870;28;20052;-34
2023/06/04 00:39:32;;;;;;;9.82;8.18;;;;;;;22.77;58.05;96505.19;5034151;28;20022;-34
2023/06/04 00:41:57;;;;;;;10.80;8.45;;;;;;;22.76;58.06;96503.66;5033880;28;20021;-34
2023/06/04 00:44:25;;;;;;;11.43;8.88;;;;;;;22.97;57.54;96506.91;5033874;28;20072;-34
2023/06/04 00:46:51;;;;;;;12.00;8.85;;;;;;;22.92;57.85;96504.91;5033994;28;20029;-34
2023/06/04 00:49:16;;;;;;;13.20;9.90;;;;;;;23.00;57.57;96494.81;5038076;28;20025;-35
2023/06/04 00:51:42;;;;;;;12.00;8.80;;;;;;;22.95;57.75;96506.66;5033356;28;20447;-34
2023/06/04 00:54:08;;;;;;;11.98;9.27;;;;;;;22.75;58.14;96506.94;5048430;28;20040;-34
2023/06/04 00:56:38;;;;;;;10.10;8.65;;;;;;;22.91;57.81;96509.69;5033862;28;20025;-34
2023/06/04 00:59:07;;;;;;;12.57;9.13;;;;;;;22.57;58.90;96503.44;5034160;28;20029;-33
2023/06/04 01:01:59;;;;;;;11.18;8.60;;;;;;;22.70;58.79;96499.41;5033548;28;20076;-34
2023/06/04 01:04:32;;;;;;;9.98;8.02;;;;;;;22.73;58.38;96501.91;5026639;28;20057;-34
2023/06/04 01:07:02;;;;;;;9.52;8.57;;;;;;;22.90;58.11;96501.88;5040759;28;20018;-34
2023/06/04 01:09:29;;;;;;;8.68;7.72;;;;;;;22.81;58.54;96497.38;5033857;28;20721;-34
2023/06/04 01:11:57;;;;;;;11.27;8.40;;;;;;;22.88;57.55;96494.09;5040442;28;20028;-34
2023/06/04 01:14:24;;;;;;;11.80;9.02;;;;;;;22.94;58.08;96494.09;5033938;28;20025;-33
2023/06/04 01:17:02;;;;;;;11.32;9.45;;;;;;;22.76;58.44;96491.84;5033905;28;20017;-34
2023/06/04 01:20:04;;;;;;;10.63;8.57;;;;;;;22.75;58.20;96487.59;5033986;28;20087;-34
2023/06/04 01:22:39;;;;;;;10.40;8.30;;;;;;;22.88;57.93;96482.28;5041187;28;20024;-34
2023/06/04 01:25:23;;;;;;;11.10;8.82;;;;;;;22.78;58.39;96478.28;5039925;28;20036;-34
2023/06/04 01:27:52;;;;;;;9.68;8.02;;;;;;;22.66;58.51;96482.31;5026696;28;20087;-34
2023/06/04 01:30:22;;;;;;;11.43;8.68;;;;;;;22.81;58.02;96482.81;5043421;28;20021;-33
2023/06/04 01:32:48;;;;;;;9.82;8.68;;;;;;;22.81;58.09;96486.31;5044402;28;20033;-34
2023/06/04 01:35:14;;;;;;;12.93;9.43;;;;;;;22.58;58.39;96482.81;5043343;28;20025;-33
2023/06/04 01:37:39;;;;;;;10.68;8.90;;;;;;;22.72;58.12;96483.06;5039801;28;20385;-34
2023/06/04 01:40:08;;;;;;;12.60;8.95;;;;;;;22.68;58.07;96485.31;5043446;28;20462;-34
2023/06/04 01:42:34;;;;;;;12.77;9.23;;;;;;;22.46;59.03;96491.63;5044186;28;20036;-33
2023/06/04 01:45:00;;;;;;;11.60;9.07;;;;;;;22.57;58.64;96486.84;5037114;28;20025;-34
2023/06/04 01:47:25;;;;;;;11.85;9.68;;;;;;;22.60;58.53;96481.56;5036878;28;20021;-33
2023/06/04 01:49:51;;;;;;;11.52;9.63;;;;;;;22.55;58.52;96481.06;5037222;28;20028;-34
2023/06/04 01:52:16;;;;;;;12.57;9.65;;;;;;;22.59;58.33;96489.09;5035371;28;20053;-33
2023/06/04 01:54:42;;;;;;;11.63;9.43;;;;;;;22.57;58.23;96489.63;5044152;28;20045;-34
2023/06/04 01:57:09;;;;;;;12.02;8.98;;;;;;;22.60;58.29;96498.16;5039827;28;20075;-36
2023/06/04 01:59:36;;;;;;;12.70;9.25;;;;;;;22.57;58.40;96495.13;5041748;28;20109;-34
2023/06/04 02:02:02;;;;;;;11.63;9.02;;;;;;;22.47;58.55;96493.16;5037153;28;20389;-35
2023/06/04 02:04:28;;;;;;;11.98;9.52;;;;;;;22.46;57.86;96486.88;5036678;28;20465;-33
2023/06/04 02:06:53;;;;;;;11.77;8.85;;;;;;;22.36;58.24;96493.91;5036322;28;20035;-34
2023/06/04 02:09:19;;;;;;;10.52;7.95;;;;;;;22.28;58.61;96490.13;5036965;28;20013;-34
2023/06/04 02:11:44;;;;;;;11.93;8.73;;;;;;;22.30;58.34;96487.63;5049333;28;20100;-34
2023/06/04 02:14:10;;;;;;;10.10;8.60;;;;;;;22.43;58.00;96487.88;5045968;28;20024;-34
2023/06/04 02:16:35;;;;;;;10.10;7.80;;;;;;;22.29;58.72;96486.09;5035290;28;20462;-34
2023/06/04 02:19:00;;;;;;;8.93;7.05;;;;;;;22.43;57.83;96496.16;5036784;28;20022;-33
2023/06/04 02:21:26;;;;;;;8.18;6.80;;;;;;;22.17;58.48;96492.88;5036473;28;20048;-34
2023/06/04 02:23:51;;;;;;;8.55;6.57;;;;;;;22.20;58.39;96492.66;5036427;28;20022;-34
2023/06/04 02:26:17;;;;;;;8.38;6.68;;;;;;;22.23;58.17;96488.13;5036160;28;20099;-33
2023/06/04 02:28:42;;;;;;;8.70;6.85;;;;;;;22.35;57.67;96497.94;5043545;28;20143;-33
2023/06/04 02:31:08;;;;;;;9.05;6.65;;;;;;;22.27;58.22;96494.13;5036101;28;20109;-34
2023/06/04 02:33:33;;;;;;;8.98;6.07;;;;;;;22.12;58.48;96494.41;5036622;28;20025;-33
2023/06/04 02:36:00;;;;;;;9.70;7.03;;;;;;;22.20;58.42;96494.66;5043098;28;20014;-33
2023/06/04 02:38:25;;;;;;;9.30;6.53;;;;;;;22.36;57.95;96498.69;5036168;28;20092;-34
2023/06/04 02:40:50;;;;;;;10.07;7.00;;;;;;;22.44;57.59;96494.91;5048070;28;20048;-34
2023/06/04 02:43:16;;;;;;;9.18;7.00;;;;;;;22.18;58.71;96494.41;5041450;28;20029;-33
2023/06/04 02:45:41;;;;;;;8.55;6.18;;;;;;;22.16;58.75;96494.91;5038381;28;20021;-33
2023/06/04 02:48:07;;;;;;;8.43;6.32;;;;;;;22.14;58.75;96493.88;5043193;28;20023;-33
2023/06/04 02:50:32;;;;;;;8.15;6.40;;;;;;;22.12;58.72;96496.41;5035759;28;20048;-33
2023/06/04 02:52:58;;;;;;;8.95;6.93;;;;;;;22.32;58.27;96493.41;5038042;28;20030;-33
2023/06/04 02:55:23;;;;;;;11.00;7.03;;;;;;;22.07;58.70;96488.88;5041318;28;20562;-34
2023/06/04 02:57:49;;;;;;;8.13;6.07;;;;;;;22.14;58.73;96483.59;5043068;28;20021;-33
2023/06/04 03:00:15;;;;;;;8.95;6.72;;;;;;;22.28;58.08;96487.38;5041998;28;20029;-33
2023/06/04 03:02:42;;;;;;;10.20;6.53;;;;;;;22.21;58.45;96479.59;5033618;28;20024;-33
2023/06/04 03:05:10;;;;;;;9.02;6.90;;;;;;;22.23;58.20;96482.59;5035923;28;20477;-33
2023/06/04 03:07:37;;;;;;;8.23;6.82;;;;;;;22.22;58.06;96478.34;5034571;28;20358;-33
2023/06/04 03:10:04;;;;;;;8.55;6.60;;;;;;;22.26;58.18;96478.81;5035623;28;20457;-34
2023/06/04 03:12:29;;;;;;;8.43;7.10;;;;;;;22.28;57.77;96481.84;5038804;28;20056;-34
2023/06/04 03:14:55;;;;;;;10.77;6.32;;;;;;;22.38;57.90;96479.56;5039285;28;20041;-33
2023/06/04 03:17:20;;;;;;;13.57;8.00;;;;;;;22.28;57.78;96483.84;5043100;28;20029;-34
2023/06/04 03:19:47;;;;;;;9.43;6.80;;;;;;;22.19;57.91;96482.09;5035353;28;20029;-34
2023/06/04 03:22:13;;;;;;;8.82;6.35;;;;;;;22.24;58.05;96480.59;5035002;28;20033;-34
2023/06/04 03:24:41;;;;;;;9.02;6.78;;;;;;;22.16;58.22;96480.34;5035548;28;20025;-34
2023/06/04 03:27:07;;;;;;;11.48;7.40;;;;;;;22.22;58.39;96489.38;5035555;28;20029;-33
2023/06/04 03:29:34;;;;;;;11.23;7.25;;;;;;;22.04;58.71;96479.56;5042620;28;20166;-33
2023/06/04 03:32:00;;;;;;;10.48;7.93;;;;;;;22.12;58.56;96482.59;5039619;28;20021;-34
2023/06/04 03:34:26;;;;;;;11.50;8.52;;;;;;;22.20;58.40;96486.38;5037656;28;20491;-34
2023/06/04 03:36:52;;;;;;;12.23;8.70;;;;;;;22.05;59.21;96480.34;5042461;28;20112;-34
2023/06/04 03:39:18;;;;;;;11.63;8.60;;;;;;;22.12;58.77;96475.06;5034911;28;20497;-34
2023/06/04 03:41:43;;;;;;;10.98;8.93;;;;;;;22.09;59.22;96472.56;5035320;28;20029;-34
2023/06/04 03:44:09;;;;;;;9.63;7.78;;;;;;;21.98;59.44;96467.00;5034829;28;20099;-34
2023/06/04 03:46:35;;;;;;;8.88;7.28;;;;;;;22.19;58.86;96479.34;5041903;28;20071;-35
2023/06/04 03:49:02;;;;;;;8.75;6.85;;;;;;;22.17;58.35;96465.25;5042737;28;20025;-34
2023/06/04 03:51:27;;;;;;;8.27;6.80;;;;;;;22.19;58.68;96468.28;5034686;28;20025;-34
2023/06/04 03:53:52;;;;;;;7.57;6.55;;;;;;;22.21;58.51;96466.53;5041260;28;20029;-34
2023/06/04 03:56:18;;;;;;;9.25;6.72;;;;;;;22.11;58.39;96470.06;5035147;28;20021;-34
2023/06/04 03:58:43;;;;;;;6.78;6.07;;;;;;;21.97;58.64;96463.50;5034198;28;20036;-33
2023/06/04 04:01:10;;;;;;;7.78;5.95;;;;;;;22.02;58.52;96465.50;5036342;28;20023;-33
2023/06/04 04:03:36;;;;;;;8.02;5.75;;;;;;;22.10;58.64;96455.50;5039827;28;20048;-34
2023/06/04 04:06:01;;;;;;;9.63;6.40;;;;;;;22.26;58.13;96451.19;5041988;28;20434;-33
2023/06/04 04:08:31;;;;;;;8.23;6.80;;;;;;;22.16;58.42;96461.00;5034600;28;20373;-33
2023/06/04 04:11:00;;;;;;;7.43;6.43;;;;;;;22.18;58.43;96461.25;5034441;28;20071;-34
2023/06/04 04:13:25;;;;;;;8.90;6.82;;;;;;;22.14;58.36;96455.22;5026620;28;20027;-34
2023/06/04 04:15:52;;;;;;;7.40;6.10;;;;;;;22.32;58.22;96462.25;5041685;28;20021;-33
2023/06/04 04:18:21;;;;;;;7.95;6.50;;;;;;;22.26;58.25;96467.00;5048534;28;20485;-33
2023/06/04 04:20:46;;;;;;;8.85;7.25;;;;;;;22.25;58.20;96465.53;5034206;28;20033;-33
2023/06/04 04:23:13;;;;;;;10.80;7.10;;;;;;;22.08;59.06;96471.06;5034359;28;20025;-34
2023/06/04 04:25:39;;;;;;;8.70;6.72;;;;;;;22.33;58.59;96464.50;5034453;28;20051;-33
2023/06/04 04:28:07;;;;;;;8.65;6.38;;;;;;;22.26;58.25;96459.47;5034382;28;20087;-33
2023/06/04 04:30:36;;;;;;;8.07;6.32;;;;;;;22.24;58.37;96464.78;5035320;28;20107;-34
2023/06/04 04:33:04;;;;;;;9.75;7.07;;;;;;;22.27;58.62;96472.03;5039753;28;20053;-33
2023/06/04 04:35:32;;;;;;;7.68;6.13;;;;;;;22.34;58.04;96471.56;5046595;28;20021;-34
2023/06/04 04:37:58;;;;;;;7.97;6.30;;;;;;;22.26;58.25;96473.28;5034085;28;20022;-33
2023/06/04 04:40:24;;;;;;;7.32;6.40;;;;;;;22.31;58.51;96471.78;5033981;28;20032;-34
2023/06/04 04:42:50;;;;;;;8.82;6.90;;;;;;;22.37;58.24;96467.78;5034242;28;20026;-33
2023/06/04 04:45:17;;;;;;;9.90;6.50;;;;;;;22.29;58.78;96472.28;5034251;28;20477;-34
2023/06/04 04:47:43;;;;;;;9.68;6.47;;;;;;;22.15;58.97;96468.53;5041313;28;20361;-33
2023/06/04 04:50:08;;;;;;;9.45;6.85;;;;;;;22.33;58.85;96470.03;5037333;28;20075;-34
2023/06/04 04:52:34;;;;;;;8.52;6.18;;;;;;;22.33;59.21;96472.81;5036744;28;20037;-34
2023/06/04 04:54:59;;;;;;;8.93;6.47;;;;;;;22.27;58.86;96465.75;5034089;28;20489;-33
2023/06/04 04:57:25;;;;;;;11.38;6.55;;;;;;;22.46;58.36;96481.34;5033778;28;20029;-34
2023/06/04 04:59:51;;;;;;;9.18;6.30;;;;;;;22.40;58.86;96463.25;5033490;28;20107;-33
2023/06/04 05:02:16;;;;;;;9.27;6.80;;;;;;;22.43;58.54;96471.28;5034107;28;20021;-33
2023/06/04 05:04:42;;;;;;;9.43;6.28;;;;;;;22.46;58.56;96469.53;5040499;28;20053;-35
2023/06/04 05:07:07;;;;;;;6.93;5.70;;;;;;;22.39;59.00;96465.25;5041077;28;20036;-33
2023/06/04 05:09:32;;;;;;;7.40;5.95;;;;;;;22.35;58.83;96469.53;5033625;28;20372;-33
2023/06/04 05:11:58;;;;;;;7.80;5.75;;;;;;;22.56;58.52;96477.03;5040472;28;20017;-34
2023/06/04 05:14:23;;;;;;;8.10;5.60;;;;;;;22.54;58.30;96478.81;5033819;28;20376;-34
2023/06/04 05:16:49;;;;;;;8.73;5.97;;;;;;;22.52;58.06;96484.84;5038367;28;20028;-34
2023/06/04 05:19:17;;;;;;;7.97;5.82;;;;;;;22.41;58.73;96490.38;5034241;28;20053;-34
2023/06/04 05:21:44;;;;;;;8.68;5.47;;;;;;;22.45;58.23;96481.84;5040121;28;20021;-34
2023/06/04 05:24:10;;;;;;;7.38;5.38;;;;;;;22.38;58.71;96488.59;5040416;28;20493;-33
2023/06/04 05:26:37;;;;;;;7.20;5.10;;;;;;;22.59;58.14;96494.63;5033590;28;20025;-35
2023/06/04 05:29:04;;;;;;;7.85;5.38;;;;;;;22.46;57.95;96497.91;5033005;28;20021;-34
2023/06/04 05:31:33;;;;;;;9.35;5.10;;;;;;;22.44;57.93;96494.16;5033601;28;20028;-35
2023/06/04 05:34:07;;;;;;;7.20;5.80;;;;;;;22.49;57.63;96499.69;5033686;28;20021;-34
2023/06/04 05:36:32;;;;;;;8.48;5.00;;;;;;;22.41;57.15;96500.66;5047500;28;20057;-34
2023/06/04 05:38:59;;;;;;;6.70;5.18;;;;;;;22.53;57.36;96510.47;5036744;28;20470;-35
2023/06/04 05:41:27;;;;;;;9.60;5.57;;;;;;;22.67;56.69;96503.91;5035734;28;20481;-33
2023/06/04 05:43:53;;;;;;;12.93;5.25;;;;;;;22.40;57.27;96510.22;5040671;28;20532;-34
2023/06/04 05:46:19;;;;;;;6.13;5.00;;;;;;;22.44;57.55;96525.28;5033098;28;20167;-34
2023/06/04 05:48:44;;;;;;;6.72;4.93;;;;;;;22.55;57.23;96521.78;5032970;28;20086;-34
2023/06/04 05:51:10;;;;;;;10.65;7.05;;;;;;;22.56;57.38;96523.28;5033329;28;20576;-33
2023/06/04 05:53:35;;;;;;;8.27;6.30;;;;;;;22.48;56.63;96520.28;5047377;28;20017;-34
2023/06/04 05:56:01;;;;;;;7.68;5.53;;;;;;;22.44;57.10;96530.06;5041068;28;20554;-33
2023/06/04 05:58:26;;;;;;;7.65;5.47;;;;;;;22.27;57.80;96537.59;5033193;28;20029;-34
2023/06/04 06:00:52;;;;;;;8.10;5.63;;;;;;;22.52;57.05;96539.34;5032807;28;20025;-34
2023/06/04 06:03:17;;;;;;;7.25;5.18;;;;;;;22.47;56.96;96551.94;5033383;28;20028;-34
2023/06/04 06:05:43;;;;;;;7.35;5.40;;;;;;;22.37;57.12;96555.44;5034671;28;20033;-33
2023/06/04 06:08:09;;;;;;;9.68;5.45;;;;;;;22.55;56.77;96546.66;5033603;28;20099;-33
2023/06/04 06:10:35;;;;;;;7.57;5.18;;;;;;;22.35;57.59;96561.47;5039315;28;20381;-34
2023/06/04 06:13:00;;;;;;;6.70;5.38;;;;;;;22.34;57.36;96579.31;5032283;28;20455;-34
2023/06/04 06:15:26;;;;;;;5.45;4.88;;;;;;;22.43;57.67;96565.25;5040242;28;20163;-34
2023/06/04 06:17:52;;;;;;;7.65;5.85;;;;;;;22.35;57.81;96566.25;5043197;28;20075;-34
2023/06/04 06:20:18;;;;;;;8.60;5.43;;;;;;;22.52;57.17;96558.69;5036663;28;20350;-34
2023/06/04 06:22:44;;;;;;;7.03;5.60;;;;;;;22.46;57.86;96558.72;5043724;28;20116;-33
2023/06/04 06:25:12;;;;;;;7.38;5.93;;;;;;;22.47;57.61;96559.47;5043111;28;20108;-34
2023/06/04 06:27:38;;;;;;;7.47;5.45;;;;;;;22.41;58.06;96561.47;5036819;28;20029;-34
2023/06/04 06:30:06;;;;;;;6.60;5.75;;;;;;;22.41;57.93;96564.22;5036323;28;20036;-34
2023/06/04 06:32:31;;;;;;;8.25;5.72;;;;;;;22.63;57.01;96557.94;5036512;28;20489;-34
2023/06/04 06:34:57;;;;;;;7.05;5.20;;;;;;;22.58;57.47;96562.22;5040285;28;20017;-34
2023/06/04 06:37:22;;;;;;;6.80;5.38;;;;;;;22.68;57.41;96566.25;5039762;28;20032;-34
2023/06/04 06:39:48;;;;;;;7.15;5.70;;;;;;;22.53;57.80;96569.25;5042156;28;20021;-35
2023/06/04 06:42:13;;;;;;;8.50;4.95;;;;;;;22.62;57.76;96570.28;5043013;28;20034;-34
2023/06/04 06:44:39;;;;;;;7.13;4.75;;;;;;;22.68;57.10;96565.50;5035905;28;20048;-34
2023/06/04 06:47:04;;;;;;;6.55;5.25;;;;;;;22.64;57.79;96568.50;5036070;28;20033;-34
2023/06/04 06:49:30;;;;;;;7.60;5.15;;;;;;;22.62;57.84;96576.56;5035812;28;20063;-33
2023/06/04 06:51:55;;;;;;;11.98;5.13;;;;;;;22.70;57.89;96583.09;5036423;28;20499;-34
2023/06/04 06:54:21;;;;;;;7.68;5.00;;;;;;;22.74;57.85;96583.59;5047889;28;20049;-34
2023/06/04 06:56:49;;;;;;;5.97;4.75;;;;;;;22.70;57.93;96576.81;5036419;28;20124;-34
2023/06/04 06:59:14;;;;;;;6.03;4.78;;;;;;;22.79;57.84;96574.56;5043294;28;20031;-34
2023/06/04 07:01:40;;;;;;;6.90;4.90;;;;;;;22.73;57.85;96570.28;5035444;28;20104;-34
2023/06/04 07:04:06;;;;;;;6.35;5.00;;;;;;;22.69;58.33;96576.03;5035833;28;20487;-34
2023/06/04 07:06:32;;;;;;;7.15;5.28;;;;;;;22.83;57.63;96571.53;5035664;28;20018;-33
2023/06/04 07:08:58;;;;;;;4.90;4.25;;;;;;;22.74;57.91;96572.53;5035294;28;20034;-34
2023/06/04 07:11:25;;;;;;;6.32;4.85;;;;;;;22.69;57.98;96573.28;5052617;28;20690;-34
2023/06/04 07:13:51;;;;;;;6.70;4.90;;;;;;;22.78;57.94;96575.06;5044684;28;20031;-34
2023/06/04 07:16:17;;;;;;;7.03;5.00;;;;;;;22.77;57.65;96577.06;5037248;28;20017;-34
2023/06/04 07:18:43;;;;;;;7.43;4.75;;;;;;;22.74;57.90;96574.53;5041724;28;20026;-34
2023/06/04 07:21:08;;;;;;;6.70;4.93;;;;;;;22.90;57.19;96573.78;5033391;28;20025;-34
2023/06/04 07:23:34;;;;;;;6.45;4.60;;;;;;;23.01;56.99;96570.25;5035756;28;20387;-34
2023/06/04 07:25:59;;;;;;;5.70;4.68;;;;;;;22.95;57.09;96570.28;5035287;28;20017;-34
2023/06/04 07:28:25;;;;;;;7.88;5.28;;;;;;;22.95;57.43;96575.81;5042027;28;20502;-34
2023/06/04 07:30:50;;;;;;;9.27;5.32;;;;;;;22.93;57.23;96561.72;5042095;28;20031;-34
2023/06/04 07:33:16;;;;;;;7.82;5.32;;;;;;;22.81;58.04;96565.75;5035161;28;20029;-34
2023/06/04 07:35:41;;;;;;;8.73;5.32;;;;;;;22.98;57.51;96577.56;5035427;28;20049;-33
2023/06/04 07:38:07;;;;;;;6.70;4.82;;;;;;;22.80;58.26;96578.06;5035172;28;20369;-34
2023/06/04 07:40:32;;;;;;;5.70;5.05;;;;;;;23.09;56.97;96569.25;5034724;28;20036;-34
2023/06/04 07:42:58;;;;;;;6.93;5.10;;;;;;;23.10;56.88;96578.28;5037859;28;20024;-34
2023/06/04 07:45:23;;;;;;;7.32;5.05;;;;;;;23.16;56.70;96585.31;5039290;28;20129;-34
2023/06/04 07:47:49;;;;;;;6.55;5.03;;;;;;;23.06;57.22;96581.31;5042161;28;20054;-34
2023/06/04 07:50:15;;;;;;;6.38;4.97;;;;;;;23.22;56.60;96571.47;5034843;28;20412;-33
2023/06/04 07:52:40;;;;;;;7.32;6.18;;;;;;;22.93;57.90;96578.31;5034885;28;20416;-34
2023/06/04 07:55:08;;;;;;;7.15;5.20;;;;;;;23.09;57.37;96577.53;5042315;28;20099;-34
2023/06/04 07:57:33;;;;;;;6.55;5.15;;;;;;;22.99;57.82;96573.53;5034713;28;20021;-33
2023/06/04 07:59:59;;;;;;;5.30;4.80;;;;;;;23.15;56.86;96571.97;5041802;28;20032;-34
2023/06/04 08:02:25;;;;;;;7.35;5.30;;;;;;;23.20;57.02;96574.75;5038555;28;20021;-34
2023/06/04 08:04:51;;;;;;;6.82;5.10;;;;;;;23.34;56.75;96578.50;5037356;28;20439;-35
2023/06/04 08:07:16;;;;;;;7.05;5.60;;;;;;;23.35;56.44;96580.00;5035016;28;20059;-36
2023/06/04 08:09:44;;;;;;;6.82;4.97;;;;;;;23.44;56.31;96567.88;5034595;28;20095;-35
2023/06/04 08:12:09;;;;;;;5.97;5.05;;;;;;;23.42;56.10;96570.41;5035050;28;20040;-34
2023/06/04 08:14:35;;;;;;;6.28;5.55;;;;;;;23.33;56.44;96579.00;5041462;28;20112;-34
2023/06/04 08:17:01;;;;;;;8.07;5.63;;;;;;;23.19;56.90;96578.78;5047934;28;20021;-34
2023/06/04 08:19:26;;;;;;;6.80;5.65;;;;;;;23.23;56.83;96573.75;5034538;28;20021;-34
2023/06/04 08:21:51;;;;;;;6.78;5.40;;;;;;;23.43;56.15;96580.97;5034583;28;20024;-34
2023/06/04 08:24:17;;;;;;;8.48;5.57;;;;;;;23.37;56.36;96574.69;5033860;28;20474;-34
2023/06/04 08:26:42;;;;;;;7.05;5.32;;;;;;;23.31;56.67;96570.44;5034189;28;20028;-34
2023/06/04 08:29:08;;;;;;;7.63;5.43;;;;;;;23.42;56.46;96575.94;5040305;28;20025;-34
2023/06/04 08:31:34;;;;;;;7.43;5.38;;;;;;;23.38;56.81;96584.50;5036414;28;20021;-34
2023/06/04 08:33:59;;;;;;;5.93;5.15;;;;;;;23.54;56.21;96586.50;5040468;28;20445;-34
2023/06/04 08:36:25;;;;;;;6.97;5.40;;;;;;;23.36;56.92;96577.97;5040826;28;20058;-34
2023/06/04 08:38:52;;;;;;;7.45;5.20;;;;;;;23.45;56.48;96575.69;5040274;28;20028;-34
2023/06/04 08:41:39;;;;;;;7.05;5.45;;;;;;;23.27;57.24;96584.53;5034038;28;20362;-34
2023/06/04 08:44:06;;;;;;;8.30;6.10;;;;;;;23.38;56.68;96578.97;5027181;28;20048;-35
2023/06/04 08:46:32;;;;;;;7.55;5.47;;;;;;;23.46;56.28;96581.97;5040903;28;20032;-34
2023/06/04 08:49:03;;;;;;;6.88;5.57;;;;;;;23.31;57.07;96578.75;5047869;28;20021;-34
2023/06/04 08:51:32;;;;;;;7.03;5.40;;;;;;;23.48;56.69;96587.75;5032386;28;20397;-34
2023/06/04 08:53:59;;;;;;;8.05;5.25;;;;;;;23.37;56.85;96587.78;5032728;28;20112;-34
2023/06/04 08:56:25;;;;;;;10.07;5.40;;;;;;;23.44;56.43;96598.31;5032608;28;20483;-34
2023/06/04 08:58:51;;;;;;;6.60;5.63;;;;;;;23.55;56.38;96596.31;5040756;28;20025;-34
2023/06/04 09:01:17;;;;;;;9.00;5.45;;;;;;;23.59;56.27;96599.56;5029412;28;20070;-34
2023/06/04 09:03:43;;;;;;;9.40;5.35;;;;;;;23.50;56.67;96607.34;5037964;28;20091;-34
2023/06/04 09:06:08;;;;;;;8.35;5.38;;;;;;;23.38;56.56;96603.88;5038717;28;20441;-33
2023/06/04 09:08:37;;;;;;;7.63;5.43;;;;;;;23.55;55.96;96598.31;5029518;28;20025;-33
2023/06/04 09:11:10;;;;;;;6.35;4.90;;;;;;;23.51;56.27;96603.34;5033513;28;20025;-34
2023/06/04 09:13:36;;;;;;;6.43;5.35;;;;;;;23.36;57.03;96605.66;5027051;28;20075;-34
2023/06/04 09:16:02;;;;;;;7.53;5.35;;;;;;;23.49;56.82;96600.34;5033733;28;20017;-35
2023/06/04 09:18:28;;;;;;;6.28;5.60;;;;;;;23.41;57.12;96610.41;5040544;28;20020;-34
2023/06/04 09:21:08;;;;;;;6.90;5.20;;;;;;;23.44;56.53;96614.94;5038969;28;20147;-34
2023/06/04 09:23:47;;;;;;;6.60;5.43;;;;;;;23.68;56.00;96609.59;5033685;28;20087;-33
2023/06/04 09:26:13;;;;;;;7.22;5.68;;;;;;;23.37;57.20;96607.88;5033493;28;20451;-33
2023/06/04 09:28:42;;;;;;;6.05;4.53;;;;;;;23.65;55.89;96616.16;5033879;28;20464;-33
2023/06/04 09:31:15;;;;;;;6.47;5.00;;;;;;;23.52;56.00;96615.94;5033506;28;20022;-33
2023/06/04 09:33:49;;;;;;;6.72;6.03;;;;;;;23.60;56.08;96622.47;5035365;28;20140;-33
2023/06/04 09:36:15;;;;;;;7.18;5.22;;;;;;;23.52;56.18;96615.94;5037453;28;20060;-33
2023/06/04 09:38:41;;;;;;;6.15;5.40;;;;;;;23.55;55.51;96614.94;5040586;28;20030;-33
2023/06/04 09:41:21;;;;;;;8.20;5.15;;;;;;;23.49;55.53;96616.94;5033534;28;20095;-32
2023/06/04 09:43:47;;;;;;;7.05;4.63;;;;;;;23.58;54.96;96614.66;5034030;28;20060;-33
2023/06/04 09:46:14;;;;;;;8.45;4.43;;;;;;;23.56;54.49;96616.44;5033232;28;20045;-33
2023/06/04 09:48:40;;;;;;;5.50;4.75;;;;;;;23.58;53.92;96622.22;5033045;28;20025;-34
2023/06/04 09:51:11;;;;;;;7.03;4.30;;;;;;;23.43;54.29;96621.72;5042608;28;20531;-33
2023/06/04 09:53:37;;;;;;;5.55;4.45;;;;;;;23.47;53.67;96614.69;5036751;28;20035;-33
2023/06/04 09:56:08;;;;;;;6.32;5.00;;;;;;;23.68;53.27;96606.06;5037293;28;20046;-33
2023/06/04 09:58:35;;;;;;;6.95;4.60;;;;;;;23.53;53.44;96598.06;5042455;28;20078;-33
2023/06/04 10:01:04;;;;;;;5.22;4.18;;;;;;;23.59;53.31;96598.81;5038458;28;20031;-33
2023/06/04 10:03:36;;;;;;;11.82;8.13;;;;;;;23.67;53.33;96588.72;5037110;28;20026;-33
2023/06/04 10:06:04;;;;;;;7.50;5.43;;;;;;;23.63;53.66;96600.03;5037042;28;20056;-33
2023/06/04 10:08:31;;;;;;;6.78;5.07;;;;;;;23.55;54.37;96590.75;5043523;28;20381;-33
2023/06/04 10:11:02;;;;;;;7.95;5.53;;;;;;;23.55;54.59;96601.84;5043229;28;20027;-33
2023/06/04 10:13:31;;;;;;;6.95;5.38;;;;;;;23.85;53.81;96596.44;5037682;28;20092;-33
2023/06/04 10:16:00;;;;;;;6.13;5.05;;;;;;;23.57;54.82;96593.78;5036524;28;20017;-34
2023/06/04 10:18:30;;;;;;;6.13;4.38;;;;;;;23.54;53.72;96600.34;5042220;28;20025;-33
2023/06/04 10:20:57;;;;;;;6.45;4.65;;;;;;;23.54;53.82;96594.78;5044011;28;20025;-33
2023/06/04 10:23:24;;;;;;;5.68;4.75;;;;;;;23.63;53.74;96597.28;5043854;28;20070;-33
2023/06/04 10:25:52;;;;;;;6.10;4.53;;;;;;;23.83;52.98;96604.50;5040514;28;20086;-33
2023/06/04 10:28:19;;;;;;;6.38;4.28;;;;;;;23.63;53.00;96605.56;5043675;28;20097;-33
2023/06/04 10:30:45;;;;;;;5.32;4.43;;;;;;;23.69;53.22;96607.59;5043533;28;20021;-33
2023/06/04 10:33:11;;;;;;;9.45;4.68;;;;;;;23.65;54.08;96602.31;5035276;28;20036;-33
2023/06/04 10:35:37;;;;;;;7.25;4.80;;;;;;;23.58;54.25;96611.91;5044855;28;20056;-33
2023/06/04 10:38:11;;;;;;;6.45;4.32;;;;;;;23.56;54.21;96610.91;5042230;28;20067;-33
2023/06/04 10:40:37;;;;;;;7.40;5.07;;;;;;;23.58;54.30;96613.91;5043273;28;20036;-33
2023/06/04 10:43:15;;;;;;;7.38;5.10;;;;;;;23.58;54.63;96613.91;5036243;28;20013;-32
2023/06/04 10:45:42;;;;;;;10.20;5.20;;;;;;;23.76;54.07;96607.78;5036453;28;20033;-33
2023/06/04 10:48:09;;;;;;;7.68;4.80;;;;;;;23.68;54.29;96604.06;5036380;28;20434;-33
2023/06/04 10:50:48;;;;;;;7.45;5.47;;;;;;;23.71;54.24;96605.81;5035887;28;20496;-33
2023/06/04 10:53:13;;;;;;;8.70;5.32;;;;;;;23.56;54.71;96606.13;5040115;28;20028;-33
2023/06/04 10:55:47;;;;;;;6.28;5.03;;;;;;;23.53;54.43;96609.91;5046010;28;20548;-33
2023/06/04 10:58:13;;;;;;;7.10;4.95;;;;;;;23.62;53.96;96606.09;5034069;28;20055;-33
2023/06/04 11:00:41;;;;;;;5.28;4.78;;;;;;;23.55;53.97;96607.38;5035674;28;20022;-33
2023/06/04 11:03:07;;;;;;;8.13;4.50;;;;;;;23.63;53.73;96605.56;5035341;28;20021;-33
2023/06/04 11:05:35;;;;;;;6.85;5.40;;;;;;;23.75;53.53;96606.28;5035422;28;20071;-33
2023/06/04 11:08:02;;;;;;;6.53;4.78;;;;;;;23.64;53.72;96609.09;5035763;28;20024;-33
2023/06/04 11:10:37;;;;;;;7.03;4.63;;;;;;;23.66;53.65;96603.06;5028551;28;20013;-33
2023/06/04 11:13:04;;;;;;;5.13;4.63;;;;;;;23.68;53.20;96609.59;5042722;28;20021;-33
2023/06/04 11:15:48;;;;;;;5.65;4.80;;;;;;;23.54;53.50;96607.88;5036054;28;20381;-33
2023/06/04 11:18:23;;;;;;;6.50;4.60;;;;;;;23.55;53.89;96603.84;5043049;28;20473;-33
2023/06/04 11:20:58;;;;;;;6.85;5.18;;;;;;;23.77;53.22;96609.31;5035571;28;20037;-33
2023/06/04 11:23:23;;;;;;;6.38;4.57;;;;;;;23.69;53.29;96602.78;5035866;28;20014;-33
2023/06/04 11:25:52;;;;;;;6.53;5.00;;;;;;;23.70;53.40;96598.00;5042123;28;20021;-33
2023/06/04 11:28:18;;;;;;;8.38;5.18;;;;;;;23.54;53.79;96596.81;5042058;28;20037;-33
2023/06/04 11:30:44;;;;;;;5.47;4.88;;;;;;;23.71;53.21;96591.22;5034428;28;20025;-33